Arnott, Wisconsin
Current Conditions -  °F | °C
As of 6:35 AM on Sunday 23 Nov 2014 (Local Time) from KSTE Reporting Station
Overcast Overcast  
Wind Chill: 40°   Ceiling: 500
Heat Index: 45°   Visibility: 7mi
Dew Point: 45°   Wind: 9mph
Humidity: 100%   Direction: 180°S
Pressure: 29.58"   Gusts: NA
Location:  44.5531°N, 89.5186°W
Report Text: KSTE 231235Z AUTO 18008KT 7SM OVC005 07/07 A2958 RMK AO2 T00720072
Loading
Personal Weather Stations






























Interactive Weather Map New forecast layout! Learn more

10-Day Weather Forecast

Advertisements
Track Severe Weather on mobile